createdAt,value
2018-07-12T00:00:53.842Z,15.84
2018-07-12T00:03:20.192Z,15.98
2018-07-12T00:05:46.454Z,15.96
2018-07-12T00:08:12.799Z,16.00
2018-07-12T00:10:39.137Z,16.02
2018-07-12T00:13:05.402Z,15.86
2018-07-12T00:15:32.157Z,15.82
2018-07-12T00:17:58.474Z,15.64
2018-07-12T00:20:25.233Z,15.74
2018-07-12T00:22:51.980Z,15.94
2018-07-12T00:25:18.310Z,15.98
2018-07-12T00:27:44.586Z,16.02
2018-07-12T00:30:11.031Z,16.04
2018-07-12T00:32:37.309Z,15.82
2018-07-12T00:35:03.665Z,15.67
2018-07-12T00:37:30.013Z,15.73
2018-07-12T00:39:56.329Z,15.51
2018-07-12T00:42:22.666Z,15.30
2018-07-12T00:44:48.994Z,15.22
2018-07-12T00:47:15.406Z,15.21
2018-07-12T00:49:41.781Z,15.25
2018-07-12T00:52:08.609Z,15.07
2018-07-12T00:54:34.881Z,14.93
2018-07-12T00:57:01.159Z,14.98
2018-07-12T00:59:27.497Z,15.09
2018-07-12T01:01:53.827Z,15.15
2018-07-12T01:04:20.103Z,15.17
2018-07-12T01:06:46.382Z,15.06
2018-07-12T01:09:12.645Z,15.16
2018-07-12T01:11:38.939Z,15.14
2018-07-12T01:14:05.214Z,15.18
2018-07-12T01:16:31.502Z,15.26
2018-07-12T01:18:57.770Z,15.17
2018-07-12T01:21:24.074Z,14.95
2018-07-12T01:23:50.401Z,14.93
2018-07-12T01:26:16.665Z,14.99
2018-07-12T01:28:42.960Z,14.95
2018-07-12T01:31:09.294Z,14.84
2018-07-12T01:33:35.605Z,14.66
2018-07-12T01:36:02.014Z,14.64
2018-07-12T01:38:28.233Z,14.60
2018-07-12T01:40:54.489Z,14.74
2018-07-12T01:43:20.851Z,14.81
2018-07-12T01:45:47.127Z,14.84
2018-07-12T01:48:13.510Z,14.83
2018-07-12T01:50:39.790Z,14.63
2018-07-12T01:53:06.072Z,14.60
2018-07-12T01:55:32.527Z,14.58
2018-07-12T01:57:58.906Z,14.66
2018-07-12T02:00:25.201Z,14.65
2018-07-12T02:02:51.491Z,14.44
2018-07-12T02:05:17.838Z,14.33
2018-07-12T02:07:44.101Z,14.28
2018-07-12T02:10:33.434Z,14.15
2018-07-12T02:12:59.982Z,14.24
2018-07-12T02:15:26.230Z,14.18
2018-07-12T02:17:52.579Z,14.12
2018-07-12T02:20:18.946Z,13.98
2018-07-12T02:22:45.288Z,13.97
2018-07-12T02:25:11.630Z,14.08
2018-07-12T02:27:37.914Z,14.07
2018-07-12T02:30:04.676Z,13.97
2018-07-12T02:32:31.018Z,13.89
2018-07-12T02:34:57.406Z,14.05
2018-07-12T02:37:23.682Z,13.81
2018-07-12T02:39:49.959Z,14.00
2018-07-12T02:42:16.281Z,14.01
2018-07-12T02:44:42.614Z,13.93
2018-07-12T02:47:08.911Z,13.98
2018-07-12T02:49:35.234Z,13.89
2018-07-12T02:52:01.533Z,13.91
2018-07-12T02:54:27.916Z,13.92
2018-07-12T02:56:54.222Z,13.81
2018-07-12T02:59:20.559Z,13.82
2018-07-12T03:01:46.886Z,13.76
2018-07-12T03:04:13.250Z,13.66
2018-07-12T03:06:39.575Z,13.68
2018-07-12T03:09:06.737Z,13.74
2018-07-12T03:11:33.105Z,13.79
2018-07-12T03:13:59.470Z,13.68
2018-07-12T03:16:25.729Z,13.60
2018-07-12T03:18:52.091Z,13.55
2018-07-12T03:21:18.942Z,13.50
2018-07-12T03:23:45.210Z,13.53
2018-07-12T03:26:11.536Z,13.50
2018-07-12T03:28:37.814Z,13.57
2018-07-12T03:31:04.206Z,13.58
2018-07-12T03:33:30.697Z,13.74
2018-07-12T03:35:56.965Z,13.60
2018-07-12T03:38:23.298Z,13.72
2018-07-12T03:40:49.566Z,13.66
2018-07-12T03:43:15.851Z,13.64
2018-07-12T03:45:42.206Z,13.83
2018-07-12T03:48:08.498Z,14.15
2018-07-12T03:50:34.930Z,14.15
2018-07-12T03:53:01.285Z,14.31
2018-07-12T03:55:28.124Z,14.37
2018-07-12T03:57:54.382Z,14.38
2018-07-12T04:00:20.738Z,14.39
2018-07-12T04:02:47.073Z,14.27
2018-07-12T04:05:13.331Z,14.38
2018-07-12T04:07:39.841Z,14.40
2018-07-12T04:10:33.223Z,14.47
2018-07-12T04:12:59.603Z,14.37
2018-07-12T04:15:25.859Z,14.41
2018-07-12T04:17:52.128Z,14.58
2018-07-12T04:20:18.417Z,14.51
2018-07-12T04:22:44.701Z,14.64
2018-07-12T04:25:10.959Z,14.80
2018-07-12T04:27:37.259Z,14.98
2018-07-12T04:30:03.536Z,14.93
2018-07-12T04:32:29.850Z,15.15
2018-07-12T04:34:56.206Z,15.08
2018-07-12T04:37:22.449Z,15.21
2018-07-12T04:39:48.730Z,15.09
2018-07-12T04:42:14.989Z,14.73
2018-07-12T04:44:41.751Z,14.40
2018-07-12T04:47:08.022Z,14.44
2018-07-12T04:49:34.279Z,14.60
2018-07-12T04:52:00.735Z,14.39
2018-07-12T04:54:27.672Z,14.23
2018-07-12T04:56:53.939Z,14.37
2018-07-12T04:59:20.854Z,14.50
2018-07-12T05:01:47.577Z,14.60
2018-07-12T05:04:13.931Z,14.69
2018-07-12T05:06:40.275Z,14.97
2018-07-12T05:09:07.922Z,14.79
2018-07-12T05:11:34.234Z,14.88
2018-07-12T05:14:00.523Z,15.20
2018-07-12T05:16:26.874Z,15.48
2018-07-12T05:18:53.214Z,15.83
2018-07-12T05:21:19.491Z,15.68
2018-07-12T05:23:45.785Z,15.39
2018-07-12T05:26:12.103Z,15.42
2018-07-12T05:28:38.915Z,15.49
2018-07-12T05:31:06.020Z,15.48
2018-07-12T05:33:32.327Z,15.52
2018-07-12T05:36:00.042Z,15.51
2018-07-12T05:38:27.799Z,15.64
2018-07-12T05:40:55.437Z,16.24
2018-07-12T05:43:23.083Z,16.70
2018-07-12T05:45:51.070Z,16.94
2018-07-12T05:48:18.742Z,16.57
2018-07-12T05:50:47.447Z,16.63
2018-07-12T05:53:16.209Z,16.80
2018-07-12T05:55:43.894Z,17.25
2018-07-12T05:58:11.553Z,16.81
2018-07-12T06:00:39.454Z,17.07
2018-07-12T06:03:07.135Z,16.63
2018-07-12T06:05:34.815Z,16.43
2018-07-12T06:08:02.565Z,16.77
2018-07-12T06:10:30.184Z,16.95
2018-07-12T06:13:00.479Z,17.19
2018-07-12T06:15:28.817Z,17.57
2018-07-12T06:17:56.462Z,17.42
2018-07-12T06:20:24.090Z,17.30
2018-07-12T06:22:52.301Z,17.09
2018-07-12T06:25:19.945Z,16.97
2018-07-12T06:27:47.604Z,17.15
2018-07-12T06:30:15.337Z,17.51
2018-07-12T06:32:43.043Z,17.61
2018-07-12T06:35:10.705Z,17.83
2018-07-12T06:37:38.324Z,18.07
2018-07-12T06:40:05.972Z,18.10
2018-07-12T06:42:33.662Z,18.77
2018-07-12T06:45:01.219Z,19.06
2018-07-12T06:47:28.883Z,18.68
2018-07-12T06:49:56.506Z,19.11
2018-07-12T06:52:24.210Z,19.45
2018-07-12T06:54:51.833Z,19.34
2018-07-12T06:57:19.550Z,19.55
2018-07-12T06:59:47.196Z,20.08
2018-07-12T07:02:14.877Z,20.49
2018-07-12T07:04:42.555Z,20.55
2018-07-12T07:07:10.932Z,20.64
2018-07-12T07:09:38.606Z,20.31
2018-07-12T07:12:06.450Z,20.53
2018-07-12T07:14:34.090Z,20.85
2018-07-12T07:17:01.768Z,20.95
2018-07-12T07:19:29.465Z,20.99
2018-07-12T07:21:57.162Z,21.18
2018-07-12T07:24:25.921Z,21.04
2018-07-12T07:26:53.648Z,21.35
2018-07-12T07:29:22.123Z,21.73
2018-07-12T07:31:49.734Z,22.00
2018-07-12T07:34:17.522Z,22.22
2018-07-12T07:36:45.151Z,22.52
2018-07-12T07:39:12.774Z,22.66
2018-07-12T07:41:40.580Z,23.02
2018-07-12T07:44:08.374Z,23.26
2018-07-12T07:46:35.975Z,23.67
2018-07-12T07:49:03.674Z,23.88
2018-07-12T07:51:31.282Z,24.15
2018-07-12T07:53:58.942Z,24.17
2018-07-12T07:56:26.625Z,23.92
2018-07-12T07:58:54.223Z,23.89
2018-07-12T08:01:21.959Z,23.90
2018-07-12T08:03:49.602Z,24.06
2018-07-12T08:06:17.250Z,23.99
2018-07-12T08:08:44.947Z,24.08
2018-07-12T08:11:12.559Z,24.29
2018-07-12T08:13:40.283Z,24.10
2018-07-12T08:16:07.925Z,23.96
2018-07-12T08:18:35.506Z,23.88
2018-07-12T08:21:04.363Z,23.98
2018-07-12T08:23:32.179Z,24.13
2018-07-12T08:25:59.802Z,24.32
2018-07-12T08:28:29.123Z,24.63
2018-07-12T08:30:56.725Z,24.95
2018-07-12T08:33:24.717Z,25.46
2018-07-12T08:35:52.462Z,25.70
2018-07-12T08:38:20.298Z,25.85
2018-07-12T08:40:48.033Z,25.94
2018-07-12T08:43:15.740Z,25.82
2018-07-12T08:45:43.975Z,25.68
2018-07-12T08:48:11.662Z,25.84
2018-07-12T08:50:39.350Z,25.95
2018-07-12T08:53:07.484Z,26.12
2018-07-12T08:55:35.131Z,26.44
2018-07-12T08:58:02.797Z,26.73
2018-07-12T09:00:30.463Z,26.40
2018-07-12T09:02:58.085Z,26.20
2018-07-12T09:05:25.758Z,26.37
2018-07-12T09:07:53.534Z,26.53
2018-07-12T09:10:34.077Z,26.64
2018-07-12T09:13:01.817Z,26.67
2018-07-12T09:15:29.425Z,26.72
2018-07-12T09:17:57.106Z,26.85
2018-07-12T09:20:24.742Z,26.92
2018-07-12T09:22:52.418Z,26.95
2018-07-12T09:25:20.208Z,26.97
2018-07-12T09:27:47.800Z,26.83
2018-07-12T09:30:15.426Z,26.89
2018-07-12T09:32:43.058Z,26.83
2018-07-12T09:35:10.670Z,27.11
2018-07-12T09:37:38.487Z,27.25
2018-07-12T09:40:06.165Z,27.44
2018-07-12T09:42:34.075Z,27.29
2018-07-12T09:45:01.846Z,27.09
2018-07-12T09:47:29.489Z,27.37
2018-07-12T09:49:57.143Z,27.49
2018-07-12T09:52:30.813Z,27.30
2018-07-12T09:54:58.510Z,27.54
2018-07-12T09:57:43.686Z,27.77
2018-07-12T10:00:11.542Z,27.73
2018-07-12T10:02:44.942Z,27.70
2018-07-12T10:05:18.269Z,27.60
2018-07-12T10:07:54.500Z,27.36
2018-07-12T10:10:38.676Z,27.42
2018-07-12T10:13:32.145Z,27.71
2018-07-12T10:16:02.768Z,27.76
2018-07-12T10:18:31.071Z,28.06
2018-07-12T10:20:59.046Z,28.10
2018-07-12T10:23:26.849Z,28.29
2018-07-12T10:25:54.931Z,28.29
2018-07-12T10:28:22.642Z,27.82
2018-07-12T10:30:50.313Z,27.36
2018-07-12T10:33:18.457Z,26.83
2018-07-12T10:35:46.291Z,26.89
2018-07-12T10:38:13.921Z,26.68
2018-07-12T10:40:41.934Z,26.35
2018-07-12T10:43:09.592Z,27.00
2018-07-12T10:45:37.253Z,27.11
2018-07-12T10:48:05.174Z,26.98
2018-07-12T10:50:32.876Z,27.12
2018-07-12T10:53:00.595Z,27.11
2018-07-12T10:55:28.262Z,27.44
2018-07-12T10:57:55.882Z,27.73
2018-07-12T11:00:23.602Z,27.50
2018-07-12T11:02:51.177Z,27.87
2018-07-12T11:05:19.074Z,28.01
2018-07-12T11:07:46.683Z,27.84
2018-07-12T11:10:33.890Z,27.37
2018-07-12T11:13:13.073Z,27.73
2018-07-12T11:15:40.823Z,28.14
2018-07-12T11:18:09.169Z,27.60
2018-07-12T11:20:36.952Z,27.42
2018-07-12T11:23:04.750Z,27.25
2018-07-12T11:25:32.407Z,27.18
2018-07-12T11:28:00.399Z,27.53
2018-07-12T11:30:28.055Z,27.43
2018-07-12T11:32:55.680Z,27.60
2018-07-12T11:35:23.414Z,27.78
2018-07-12T11:37:51.125Z,28.13
2018-07-12T11:40:18.794Z,27.78
2018-07-12T11:42:46.495Z,27.85
2018-07-12T11:45:14.154Z,28.22
2018-07-12T11:47:41.782Z,28.15
2018-07-12T11:50:09.390Z,28.54
2018-07-12T11:52:37.012Z,28.41
2018-07-12T11:55:04.780Z,28.64
2018-07-12T11:57:32.445Z,28.74
2018-07-12T12:00:06.805Z,28.49
2018-07-12T12:02:34.503Z,28.23
2018-07-12T12:05:02.259Z,27.92
2018-07-12T12:07:30.389Z,28.26
2018-07-12T12:09:58.090Z,29.06
2018-07-12T12:12:25.949Z,29.22
2018-07-12T12:14:53.665Z,29.64
2018-07-12T12:17:21.304Z,29.84
2018-07-12T12:19:49.223Z,30.25
2018-07-12T12:22:16.948Z,30.70
2018-07-12T12:24:44.591Z,31.45
2018-07-12T12:27:13.230Z,31.51
2018-07-12T12:29:40.954Z,31.61
2018-07-12T12:32:08.569Z,32.11
2018-07-12T12:34:36.265Z,32.47
2018-07-12T12:37:03.971Z,32.58
2018-07-12T12:39:31.602Z,33.21
2018-07-12T12:41:59.356Z,33.37
2018-07-12T12:44:27.119Z,33.46
2018-07-12T12:46:54.773Z,33.23
2018-07-12T12:49:22.422Z,33.59
2018-07-12T12:51:50.060Z,33.28
2018-07-12T12:54:17.788Z,32.94
2018-07-12T12:56:45.590Z,32.93
2018-07-12T12:59:13.250Z,32.50
2018-07-12T13:01:40.914Z,32.01
2018-07-12T13:04:09.545Z,31.40
2018-07-12T13:06:37.194Z,30.98
2018-07-12T13:09:06.342Z,31.33
2018-07-12T13:11:34.057Z,31.47
2018-07-12T13:14:01.794Z,31.49
2018-07-12T13:16:29.530Z,31.94
2018-07-12T13:18:57.178Z,32.05
2018-07-12T13:21:24.787Z,32.64
2018-07-12T13:23:52.537Z,32.08
2018-07-12T13:26:20.182Z,31.94
2018-07-12T13:28:47.819Z,32.09
2018-07-12T13:31:15.550Z,32.10
2018-07-12T13:33:43.266Z,32.00
2018-07-12T13:36:10.972Z,32.02
2018-07-12T13:38:38.568Z,32.27
2018-07-12T13:41:06.418Z,32.34
2018-07-12T13:43:34.058Z,31.77
2018-07-12T13:46:01.770Z,31.69
2018-07-12T13:48:29.382Z,31.66
2018-07-12T13:50:57.125Z,31.58
2018-07-12T13:53:24.839Z,31.33
2018-07-12T13:55:52.531Z,31.41
2018-07-12T13:58:20.198Z,31.73
2018-07-12T14:00:47.801Z,31.79
2018-07-12T14:03:15.510Z,31.83
2018-07-12T14:05:43.530Z,31.86
2018-07-12T14:08:11.233Z,31.49
2018-07-12T14:10:39.171Z,31.62
2018-07-12T14:13:06.819Z,31.51
2018-07-12T14:15:34.526Z,31.49
2018-07-12T14:18:02.230Z,31.49
2018-07-12T14:20:29.858Z,31.38
2018-07-12T14:22:57.523Z,31.21
2018-07-12T14:25:25.146Z,31.27
2018-07-12T14:27:52.839Z,30.49
2018-07-12T14:30:20.443Z,30.50
2018-07-12T14:32:48.053Z,30.40
2018-07-12T14:35:15.730Z,30.33
2018-07-12T14:37:43.354Z,30.66
2018-07-12T14:40:10.995Z,30.81
2018-07-12T14:42:38.622Z,30.93
2018-07-12T14:45:06.291Z,30.77
2018-07-12T14:47:34.007Z,30.95
2018-07-12T14:50:01.722Z,30.90
2018-07-12T14:52:29.384Z,30.81
2018-07-12T14:54:57.110Z,30.61
2018-07-12T14:57:24.727Z,30.39
2018-07-12T14:59:52.357Z,30.69
2018-07-12T15:02:20.061Z,30.69
2018-07-12T15:04:47.679Z,30.78
2018-07-12T15:07:15.360Z,30.46
2018-07-12T15:09:43.026Z,30.28
2018-07-12T15:12:10.714Z,30.35
2018-07-12T15:14:38.362Z,30.27
2018-07-12T15:17:06.071Z,29.87
2018-07-12T15:19:33.802Z,29.80
2018-07-12T15:22:01.435Z,29.96
2018-07-12T15:24:29.270Z,30.15
2018-07-12T15:26:56.902Z,30.20
2018-07-12T15:29:24.541Z,30.05
2018-07-12T15:31:54.838Z,29.80
2018-07-12T15:34:22.610Z,29.66
2018-07-12T15:36:50.738Z,29.60
2018-07-12T15:39:18.508Z,29.54
2018-07-12T15:41:46.200Z,29.41
2018-07-12T15:44:13.976Z,29.63
2018-07-12T15:46:41.650Z,29.71
2018-07-12T15:49:09.290Z,29.73
2018-07-12T15:51:36.986Z,29.83
2018-07-12T15:54:04.650Z,29.56
2018-07-12T15:56:32.313Z,29.19
2018-07-12T15:58:59.984Z,29.06
2018-07-12T16:01:27.634Z,28.95
2018-07-12T16:03:55.294Z,29.02
2018-07-12T16:06:23.122Z,28.83
2018-07-12T16:08:51.061Z,28.97
2018-07-12T16:11:18.842Z,28.55
2018-07-12T16:13:46.457Z,28.67
2018-07-12T16:16:14.233Z,28.44
2018-07-12T16:18:41.830Z,28.47
2018-07-12T16:21:09.451Z,28.57
2018-07-12T16:23:37.059Z,28.47
2018-07-12T16:26:04.793Z,28.38
2018-07-12T16:28:32.402Z,28.35
2018-07-12T16:31:00.266Z,28.33
2018-07-12T16:33:27.903Z,28.52
2018-07-12T16:35:55.659Z,28.63
2018-07-12T16:38:23.462Z,28.62
2018-07-12T16:40:51.122Z,28.74
2018-07-12T16:43:18.810Z,28.80
2018-07-12T16:45:46.541Z,28.79
2018-07-12T16:48:14.804Z,28.78
2018-07-12T16:50:42.547Z,28.79
2018-07-12T16:53:10.174Z,28.72
2018-07-12T16:55:37.854Z,28.62
2018-07-12T16:58:05.599Z,28.32
2018-07-12T17:00:33.263Z,28.27
2018-07-12T17:03:01.064Z,28.16
2018-07-12T17:05:28.750Z,28.14
2018-07-12T17:07:56.458Z,28.00
2018-07-12T17:10:33.934Z,27.96
2018-07-12T17:13:01.633Z,27.68
2018-07-12T17:15:29.272Z,27.72
2018-07-12T17:17:57.035Z,27.80
2018-07-12T17:20:24.966Z,27.68
2018-07-12T17:22:52.727Z,27.39
2018-07-12T17:25:20.378Z,27.50
2018-07-12T17:27:48.102Z,27.60
2018-07-12T17:30:15.766Z,27.61
2018-07-12T17:32:43.385Z,27.54
2018-07-12T17:35:11.102Z,27.45
2018-07-12T17:37:38.853Z,27.42
2018-07-12T17:40:06.559Z,27.43
2018-07-12T17:42:34.246Z,27.44
2018-07-12T17:45:01.866Z,27.47
2018-07-12T17:47:29.545Z,27.46
2018-07-12T17:49:57.226Z,27.42
2018-07-12T17:52:26.030Z,27.32
2018-07-12T17:54:53.894Z,27.16
2018-07-12T17:57:21.536Z,27.13
2018-07-12T17:59:49.306Z,27.11
2018-07-12T18:02:16.934Z,27.08
2018-07-12T18:04:44.562Z,26.97
2018-07-12T18:07:12.170Z,26.93
2018-07-12T18:09:39.818Z,26.92
2018-07-12T18:12:07.450Z,26.82
2018-07-12T18:14:35.129Z,26.68
2018-07-12T18:17:02.741Z,26.50
2018-07-12T18:19:30.460Z,26.48
2018-07-12T18:21:58.252Z,26.43
2018-07-12T18:24:26.263Z,26.44
2018-07-12T18:26:53.993Z,26.30
2018-07-12T18:29:21.601Z,26.21
2018-07-12T18:31:49.304Z,26.20
2018-07-12T18:34:16.962Z,26.11
2018-07-12T18:36:44.567Z,26.03
2018-07-12T18:39:12.337Z,26.06
2018-07-12T18:41:39.965Z,25.98
2018-07-12T18:44:07.685Z,25.95
2018-07-12T18:46:35.314Z,25.94
2018-07-12T18:49:03.020Z,25.89
2018-07-12T18:51:30.697Z,25.79
2018-07-12T18:53:58.293Z,25.74
2018-07-12T18:56:26.150Z,25.64
2018-07-12T18:58:53.777Z,25.62
2018-07-12T19:01:21.507Z,25.54
2018-07-12T19:03:49.094Z,25.46
2018-07-12T19:06:16.724Z,25.40
2018-07-12T19:08:44.656Z,25.36
2018-07-12T19:11:12.318Z,25.27
2018-07-12T19:13:39.909Z,25.22
2018-07-12T19:16:07.646Z,25.11
2018-07-12T19:18:35.394Z,25.06
2018-07-12T19:21:03.012Z,25.04
2018-07-12T19:23:30.738Z,24.99
2018-07-12T19:25:58.350Z,24.89
2018-07-12T19:28:26.102Z,24.80
2018-07-12T19:30:53.792Z,24.77
2018-07-12T19:33:21.490Z,24.67
2018-07-12T19:35:49.373Z,24.59
2018-07-12T19:38:17.113Z,24.55
2018-07-12T19:40:44.958Z,24.49
2018-07-12T19:43:12.691Z,24.40
2018-07-12T19:45:40.964Z,24.35
2018-07-12T19:48:09.107Z,24.30
2018-07-12T19:50:36.706Z,24.25
2018-07-12T19:53:04.350Z,24.20
2018-07-12T19:55:32.393Z,24.12
2018-07-12T19:58:00.172Z,24.08
2018-07-12T20:00:27.794Z,24.04
2018-07-12T20:02:55.431Z,23.94
2018-07-12T20:05:23.041Z,23.90
2018-07-12T20:07:50.674Z,23.83
2018-07-12T20:10:34.465Z,23.81
2018-07-12T20:13:02.091Z,23.74
2018-07-12T20:15:29.844Z,23.70
2018-07-12T20:18:09.703Z,23.66
2018-07-12T20:20:37.467Z,23.63
2018-07-12T20:23:05.152Z,23.62
2018-07-12T20:25:32.787Z,23.55
2018-07-12T20:28:00.435Z,23.55
2018-07-12T20:30:28.197Z,23.52
2018-07-12T20:32:55.830Z,23.46
2018-07-12T20:35:23.522Z,23.42
2018-07-12T20:37:51.205Z,23.38
2018-07-12T20:40:18.856Z,23.31
2018-07-12T20:42:47.026Z,23.26
2018-07-12T20:45:14.673Z,23.21
2018-07-12T20:47:42.309Z,23.22
2018-07-12T20:50:10.010Z,23.18
2018-07-12T20:52:37.717Z,23.07
2018-07-12T20:55:05.526Z,23.03
2018-07-12T20:57:33.351Z,22.99
2018-07-12T21:00:01.053Z,22.95
2018-07-12T21:02:28.650Z,22.92
2018-07-12T21:04:57.055Z,22.91
2018-07-12T21:07:26.670Z,22.87
2018-07-12T21:09:54.483Z,22.81
2018-07-12T21:12:22.162Z,22.74
2018-07-12T21:14:50.714Z,22.70
2018-07-12T21:17:18.334Z,22.67
2018-07-12T21:19:47.008Z,22.62
2018-07-12T21:22:14.634Z,22.58
2018-07-12T21:24:42.222Z,22.51
2018-07-12T21:27:09.847Z,22.41
2018-07-12T21:29:37.601Z,22.36
2018-07-12T21:32:05.382Z,22.24
2018-07-12T21:34:33.182Z,22.14
2018-07-12T21:37:00.781Z,22.14
2018-07-12T21:39:29.033Z,22.10
2018-07-12T21:41:56.621Z,22.04
2018-07-12T21:44:24.275Z,22.03
2018-07-12T21:46:52.662Z,21.97
2018-07-12T21:49:20.261Z,21.93
2018-07-12T21:51:47.927Z,21.83
2018-07-12T21:54:15.509Z,21.59
2018-07-12T21:56:43.161Z,21.47
2018-07-12T21:59:10.741Z,21.01
2018-07-12T22:01:38.363Z,21.08
2018-07-12T22:04:06.053Z,21.01
2018-07-12T22:07:00.917Z,21.08
2018-07-12T22:09:28.502Z,21.03
2018-07-12T22:11:56.201Z,20.91
2018-07-12T22:14:23.746Z,20.86
2018-07-12T22:16:51.371Z,20.71
2018-07-12T22:19:19.022Z,20.44
2018-07-12T22:21:46.729Z,20.60
2018-07-12T22:24:14.345Z,20.67
2018-07-12T22:26:41.929Z,20.78
2018-07-12T22:29:09.601Z,20.72
2018-07-12T22:31:37.250Z,20.38
2018-07-12T22:34:05.194Z,20.21
2018-07-12T22:36:32.891Z,20.25
2018-07-12T22:39:00.542Z,20.26
2018-07-12T22:41:28.198Z,20.36
2018-07-12T22:43:55.890Z,20.38
2018-07-12T22:46:23.494Z,20.28
2018-07-12T22:48:51.233Z,20.36
2018-07-12T22:51:18.845Z,20.37
2018-07-12T22:53:46.523Z,20.24
2018-07-12T22:56:14.165Z,20.30
2018-07-12T22:58:41.710Z,20.41
2018-07-12T23:01:09.334Z,20.26
2018-07-12T23:03:36.987Z,20.28
2018-07-12T23:06:04.685Z,20.16
2018-07-12T23:08:32.408Z,20.20
2018-07-12T23:11:00.069Z,20.24
2018-07-12T23:13:27.750Z,20.52
2018-07-12T23:15:55.354Z,20.38
2018-07-12T23:18:22.951Z,20.06
2018-07-12T23:20:50.645Z,20.11
2018-07-12T23:23:18.301Z,20.22
2018-07-12T23:25:45.938Z,20.02
2018-07-12T23:28:13.563Z,19.99
2018-07-12T23:30:41.214Z,19.86
2018-07-12T23:33:08.931Z,19.70
2018-07-12T23:35:36.559Z,19.71
2018-07-12T23:38:04.207Z,19.63
2018-07-12T23:40:31.918Z,19.59
2018-07-12T23:43:00.914Z,19.63
2018-07-12T23:45:28.767Z,19.53
2018-07-12T23:47:56.318Z,19.48
2018-07-12T23:50:23.942Z,19.40
2018-07-12T23:52:51.517Z,19.23
2018-07-12T23:55:19.199Z,19.29
2018-07-12T23:57:46.871Z,19.32
